Aviation Digital Data Service (ADDS)

Output produced by METARs form (1212 UTC 24 March 2017)
found at http://www.aviationweather.gov/adds/metars/
 
METAR text: KVIH 241153Z AUTO 17011KT 10SM CLR 17/09 A2996 RMK AO2 SLP139 T01670094 10200 20161 53021 $
Conditions at: KVIH (VICHY/ROLLA , MO, US) observed 1153 UTC 24 March 2017
Temperature: 16.7°C (62°F)
Dewpoint: 9.4°C (49°F) [RH = 62%]
Pressure (altimeter): 29.96 inches Hg (1014.6 mb)
[Sea-level pressure: 1013.9 mb]
Winds: from the S (170 degrees) at 13 MPH (11 knots; 5.7 m/s)
Visibility: 10 or more miles (16+ km)
Ceiling: at least 12,000 feet AGL
Clouds: sky clear below 12,000 feet AGL
Weather:
SOME DATA ABOVE MAY BE INACCURATE!!!
"$" is an indication the sensor requires maintenance